sensor_id;sensor_type;location;lat;lon;timestamp;P1;durP1;ratioP1;P2;durP2;ratioP2
45274;SDS011;31019;43.780;25.948;2023-07-31T00:02:06;51.00;;;47.90;;
45274;SDS011;31019;43.780;25.948;2023-07-31T00:04:33;52.85;;;49.95;;
45274;SDS011;31019;43.780;25.948;2023-07-31T00:07:00;46.38;;;43.65;;
45274;SDS011;31019;43.780;25.948;2023-07-31T00:09:32;47.80;;;44.60;;
45274;SDS011;31019;43.780;25.948;2023-07-31T00:12:01;47.45;;;44.60;;
45274;SDS011;31019;43.780;25.948;2023-07-31T00:14:29;47.42;;;44.63;;
45274;SDS011;31019;43.780;25.948;2023-07-31T00:16:56;48.08;;;45.30;;
45274;SDS011;31019;43.780;25.948;2023-07-31T00:19:23;48.50;;;45.63;;
45274;SDS011;31019;43.780;25.948;2023-07-31T00:21:50;45.15;;;42.63;;
45274;SDS011;31019;43.780;25.948;2023-07-31T00:24:17;44.10;;;41.50;;
45274;SDS011;31019;43.780;25.948;2023-07-31T00:29:33;44.28;;;41.75;;
45274;SDS011;31019;43.780;25.948;2023-07-31T00:32:00;48.78;;;46.10;;
45274;SDS011;31019;43.780;25.948;2023-07-31T00:34:27;46.38;;;43.88;;
45274;SDS011;31019;43.780;25.948;2023-07-31T00:36:57;52.53;;;49.70;;
45274;SDS011;31019;43.780;25.948;2023-07-31T00:39:29;44.08;;;41.20;;
45274;SDS011;31019;43.780;25.948;2023-07-31T00:44:37;43.40;;;41.10;;
45274;SDS011;31019;43.780;25.948;2023-07-31T00:47:04;41.05;;;38.85;;
45274;SDS011;31019;43.780;25.948;2023-07-31T00:49:31;52.05;;;49.15;;
45274;SDS011;31019;43.780;25.948;2023-07-31T00:52:03;46.85;;;44.25;;
45274;SDS011;31019;43.780;25.948;2023-07-31T00:54:31;41.65;;;39.22;;
45274;SDS011;31019;43.780;25.948;2023-07-31T00:56:59;42.28;;;39.97;;
45274;SDS011;31019;43.780;25.948;2023-07-31T00:59:27;49.17;;;46.67;;
45274;SDS011;31019;43.780;25.948;2023-07-31T01:01:54;43.92;;;41.33;;
45274;SDS011;31019;43.780;25.948;2023-07-31T01:04:21;39.28;;;36.95;;
45274;SDS011;31019;43.780;25.948;2023-07-31T01:06:51;44.13;;;41.60;;
45274;SDS011;31019;43.780;25.948;2023-07-31T01:09:24;44.13;;;41.72;;
45274;SDS011;31019;43.780;25.948;2023-07-31T01:12:13;46.65;;;44.15;;
45274;SDS011;31019;43.780;25.948;2023-07-31T01:14:51;42.60;;;40.17;;
45274;SDS011;31019;43.780;25.948;2023-07-31T01:17:20;46.60;;;43.90;;
45274;SDS011;31019;43.780;25.948;2023-07-31T01:19:48;39.50;;;37.10;;
45274;SDS011;31019;43.780;25.948;2023-07-31T01:22:25;44.38;;;41.58;;
45274;SDS011;31019;43.780;25.948;2023-07-31T01:25:13;42.72;;;39.85;;
45274;SDS011;31019;43.780;25.948;2023-07-31T01:27:51;39.70;;;37.00;;
45274;SDS011;31019;43.780;25.948;2023-07-31T01:30:25;42.70;;;39.50;;
45274;SDS011;31019;43.780;25.948;2023-07-31T01:32:55;45.70;;;42.17;;
45274;SDS011;31019;43.780;25.948;2023-07-31T01:38:03;50.20;;;45.88;;
45274;SDS011;31019;43.780;25.948;2023-07-31T01:40:34;50.67;;;46.38;;
45274;SDS011;31019;43.780;25.948;2023-07-31T01:43:02;44.28;;;40.17;;
45274;SDS011;31019;43.780;25.948;2023-07-31T01:45:31;52.88;;;47.88;;
45274;SDS011;31019;43.780;25.948;2023-07-31T01:47:58;48.13;;;43.45;;
45274;SDS011;31019;43.780;25.948;2023-07-31T01:50:26;50.45;;;45.85;;
45274;SDS011;31019;43.780;25.948;2023-07-31T01:52:52;68.85;;;63.25;;
45274;SDS011;31019;43.780;25.948;2023-07-31T01:55:19;60.63;;;54.97;;
45274;SDS011;31019;43.780;25.948;2023-07-31T01:57:50;52.20;;;47.15;;
45274;SDS011;31019;43.780;25.948;2023-07-31T02:00:19;50.70;;;45.97;;
45274;SDS011;31019;43.780;25.948;2023-07-31T02:02:46;48.95;;;43.83;;
45274;SDS011;31019;43.780;25.948;2023-07-31T02:05:12;52.13;;;46.97;;
45274;SDS011;31019;43.780;25.948;2023-07-31T02:07:40;60.92;;;55.25;;
45274;SDS011;31019;43.780;25.948;2023-07-31T02:10:07;63.30;;;57.67;;
45274;SDS011;31019;43.780;25.948;2023-07-31T02:12:36;67.35;;;61.45;;
45274;SDS011;31019;43.780;25.948;2023-07-31T02:15:03;67.43;;;61.20;;
45274;SDS011;31019;43.780;25.948;2023-07-31T02:17:42;65.30;;;59.20;;
45274;SDS011;31019;43.780;25.948;2023-07-31T02:20:09;70.05;;;63.70;;
45274;SDS011;31019;43.780;25.948;2023-07-31T02:22:51;73.57;;;67.13;;
45274;SDS011;31019;43.780;25.948;2023-07-31T02:25:18;71.47;;;64.88;;
45274;SDS011;31019;43.780;25.948;2023-07-31T02:27:45;83.47;;;76.50;;
45274;SDS011;31019;43.780;25.948;2023-07-31T02:30:17;76.53;;;69.88;;
45274;SDS011;31019;43.780;25.948;2023-07-31T02:32:45;75.30;;;68.93;;
45274;SDS011;31019;43.780;25.948;2023-07-31T02:35:20;76.43;;;69.03;;
45274;SDS011;31019;43.780;25.948;2023-07-31T02:37:47;97.38;;;89.50;;
45274;SDS011;31019;43.780;25.948;2023-07-31T02:40:14;79.80;;;72.80;;
45274;SDS011;31019;43.780;25.948;2023-07-31T02:42:41;84.30;;;77.35;;
45274;SDS011;31019;43.780;25.948;2023-07-31T02:45:08;74.05;;;67.45;;
45274;SDS011;31019;43.780;25.948;2023-07-31T02:47:38;72.55;;;65.85;;
45274;SDS011;31019;43.780;25.948;2023-07-31T02:50:08;83.90;;;76.72;;
45274;SDS011;31019;43.780;25.948;2023-07-31T02:52:35;68.90;;;62.75;;
45274;SDS011;31019;43.780;25.948;2023-07-31T02:55:02;72.25;;;65.88;;
45274;SDS011;31019;43.780;25.948;2023-07-31T02:57:29;59.70;;;53.97;;
45274;SDS011;31019;43.780;25.948;2023-07-31T02:59:59;65.60;;;59.42;;
45274;SDS011;31019;43.780;25.948;2023-07-31T03:02:32;61.28;;;55.55;;
45274;SDS011;31019;43.780;25.948;2023-07-31T03:04:59;76.22;;;69.63;;
45274;SDS011;31019;43.780;25.948;2023-07-31T03:07:27;61.35;;;55.65;;
45274;SDS011;31019;43.780;25.948;2023-07-31T03:10:01;66.25;;;60.25;;
45274;SDS011;31019;43.780;25.948;2023-07-31T03:12:37;72.82;;;66.50;;
45274;SDS011;31019;43.780;25.948;2023-07-31T03:15:04;89.38;;;82.05;;
45274;SDS011;31019;43.780;25.948;2023-07-31T03:17:44;62.55;;;57.00;;
45274;SDS011;31019;43.780;25.948;2023-07-31T03:20:29;63.05;;;57.00;;
45274;SDS011;31019;43.780;25.948;2023-07-31T03:22:57;64.40;;;58.50;;
45274;SDS011;31019;43.780;25.948;2023-07-31T03:25:24;84.95;;;77.65;;
45274;SDS011;31019;43.780;25.948;2023-07-31T03:27:51;67.35;;;61.15;;
45274;SDS011;31019;43.780;25.948;2023-07-31T03:30:18;59.40;;;53.53;;
45274;SDS011;31019;43.780;25.948;2023-07-31T03:32:54;63.95;;;57.75;;
45274;SDS011;31019;43.780;25.948;2023-07-31T03:37:52;54.95;;;49.42;;
45274;SDS011;31019;43.780;25.948;2023-07-31T03:43:07;55.83;;;50.33;;
45274;SDS011;31019;43.780;25.948;2023-07-31T03:45:36;60.80;;;55.20;;
45274;SDS011;31019;43.780;25.948;2023-07-31T03:48:05;74.68;;;68.63;;
45274;SDS011;31019;43.780;25.948;2023-07-31T03:50:33;69.03;;;63.42;;
45274;SDS011;31019;43.780;25.948;2023-07-31T03:53:00;70.65;;;64.78;;
45274;SDS011;31019;43.780;25.948;2023-07-31T03:55:34;66.97;;;61.28;;
45274;SDS011;31019;43.780;25.948;2023-07-31T03:58:03;65.85;;;60.55;;
45274;SDS011;31019;43.780;25.948;2023-07-31T04:00:32;67.72;;;61.97;;
45274;SDS011;31019;43.780;25.948;2023-07-31T04:02:59;68.45;;;62.63;;
45274;SDS011;31019;43.780;25.948;2023-07-31T04:05:26;75.07;;;68.78;;
45274;SDS011;31019;43.780;25.948;2023-07-31T04:08:10;80.80;;;74.57;;
45274;SDS011;31019;43.780;25.948;2023-07-31T04:10:40;66.20;;;60.10;;
45274;SDS011;31019;43.780;25.948;2023-07-31T04:13:09;74.20;;;68.05;;
45274;SDS011;31019;43.780;25.948;2023-07-31T04:15:36;77.88;;;71.22;;
45274;SDS011;31019;43.780;25.948;2023-07-31T04:18:03;69.10;;;63.00;;
45274;SDS011;31019;43.780;25.948;2023-07-31T04:20:31;67.60;;;61.78;;
45274;SDS011;31019;43.780;25.948;2023-07-31T04:23:03;68.28;;;62.47;;
45274;SDS011;31019;43.780;25.948;2023-07-31T04:25:32;66.45;;;60.67;;
45274;SDS011;31019;43.780;25.948;2023-07-31T04:28:00;64.00;;;58.67;;
45274;SDS011;31019;43.780;25.948;2023-07-31T04:30:28;60.92;;;55.15;;
45274;SDS011;31019;43.780;25.948;2023-07-31T04:32:55;62.55;;;57.25;;
45274;SDS011;31019;43.780;25.948;2023-07-31T04:35:25;62.92;;;57.58;;
45274;SDS011;31019;43.780;25.948;2023-07-31T04:37:52;66.25;;;60.65;;
45274;SDS011;31019;43.780;25.948;2023-07-31T04:40:20;63.50;;;57.97;;
45274;SDS011;31019;43.780;25.948;2023-07-31T04:42:48;64.18;;;58.33;;
45274;SDS011;31019;43.780;25.948;2023-07-31T04:45:15;65.10;;;59.55;;
45274;SDS011;31019;43.780;25.948;2023-07-31T04:47:44;62.53;;;57.00;;
45274;SDS011;31019;43.780;25.948;2023-07-31T04:50:20;62.30;;;56.97;;
45274;SDS011;31019;43.780;25.948;2023-07-31T04:55:43;67.30;;;61.80;;
45274;SDS011;31019;43.780;25.948;2023-07-31T04:58:12;62.25;;;56.65;;
45274;SDS011;31019;43.780;25.948;2023-07-31T05:00:39;61.85;;;56.45;;
45274;SDS011;31019;43.780;25.948;2023-07-31T05:03:07;31.40;;;28.98;;
45274;SDS011;31019;43.780;25.948;2023-07-31T05:05:36;28.83;;;23.63;;
45274;SDS011;31019;43.780;25.948;2023-07-31T05:08:03;34.08;;;31.30;;
45274;SDS011;31019;43.780;25.948;2023-07-31T05:10:31;65.43;;;23.67;;
45274;SDS011;31019;43.780;25.948;2023-07-31T05:12:58;87.63;;;27.17;;
45274;SDS011;31019;43.780;25.948;2023-07-31T05:15:25;39.22;;;35.92;;
45274;SDS011;31019;43.780;25.948;2023-07-31T05:17:52;56.03;;;51.13;;
45274;SDS011;31019;43.780;25.948;2023-07-31T05:26:06;71.47;;;65.32;;
45274;SDS011;31019;43.780;25.948;2023-07-31T05:28:37;76.35;;;69.95;;
45274;SDS011;31019;43.780;25.948;2023-07-31T05:31:07;73.32;;;66.30;;
45274;SDS011;31019;43.780;25.948;2023-07-31T05:33:34;71.70;;;65.70;;
45274;SDS011;31019;43.780;25.948;2023-07-31T05:36:01;71.57;;;65.47;;
45274;SDS011;31019;43.780;25.948;2023-07-31T05:38:28;74.90;;;68.88;;
45274;SDS011;31019;43.780;25.948;2023-07-31T05:40:57;80.78;;;73.82;;
45274;SDS011;31019;43.780;25.948;2023-07-31T05:45:55;72.20;;;66.15;;
45274;SDS011;31019;43.780;25.948;2023-07-31T05:48:21;73.90;;;67.90;;
45274;SDS011;31019;43.780;25.948;2023-07-31T05:50:48;80.80;;;74.10;;
45274;SDS011;31019;43.780;25.948;2023-07-31T05:53:15;70.28;;;64.00;;
45274;SDS011;31019;43.780;25.948;2023-07-31T05:55:48;67.13;;;61.40;;
45274;SDS011;31019;43.780;25.948;2023-07-31T05:58:17;74.07;;;68.38;;
45274;SDS011;31019;43.780;25.948;2023-07-31T06:00:45;74.60;;;68.60;;
45274;SDS011;31019;43.780;25.948;2023-07-31T06:03:12;75.65;;;69.60;;
45274;SDS011;31019;43.780;25.948;2023-07-31T06:05:49;74.10;;;68.03;;
45274;SDS011;31019;43.780;25.948;2023-07-31T06:08:16;75.35;;;69.28;;
45274;SDS011;31019;43.780;25.948;2023-07-31T06:10:47;69.20;;;63.60;;
45274;SDS011;31019;43.780;25.948;2023-07-31T06:13:17;80.43;;;73.93;;
45274;SDS011;31019;43.780;25.948;2023-07-31T06:15:44;58.45;;;53.63;;
45274;SDS011;31019;43.780;25.948;2023-07-31T06:18:17;64.60;;;58.90;;
45274;SDS011;31019;43.780;25.948;2023-07-31T06:20:44;68.32;;;62.85;;
45274;SDS011;31019;43.780;25.948;2023-07-31T06:25:43;68.75;;;62.90;;
45274;SDS011;31019;43.780;25.948;2023-07-31T06:30:57;71.15;;;64.85;;
45274;SDS011;31019;43.780;25.948;2023-07-31T06:33:25;75.43;;;68.93;;
45274;SDS011;31019;43.780;25.948;2023-07-31T06:35:52;75.80;;;69.10;;
45274;SDS011;31019;43.780;25.948;2023-07-31T06:38:25;65.90;;;60.10;;
45274;SDS011;31019;43.780;25.948;2023-07-31T06:40:53;63.53;;;58.33;;
45274;SDS011;31019;43.780;25.948;2023-07-31T06:43:20;67.03;;;61.42;;
45274;SDS011;31019;43.780;25.948;2023-07-31T06:45:55;73.47;;;67.43;;
45274;SDS011;31019;43.780;25.948;2023-07-31T06:48:22;70.18;;;63.90;;
45274;SDS011;31019;43.780;25.948;2023-07-31T06:50:49;63.00;;;57.58;;
45274;SDS011;31019;43.780;25.948;2023-07-31T06:53:17;70.72;;;64.80;;
45274;SDS011;31019;43.780;25.948;2023-07-31T06:55:44;71.38;;;65.22;;
45274;SDS011;31019;43.780;25.948;2023-07-31T06:58:13;61.45;;;56.10;;
45274;SDS011;31019;43.780;25.948;2023-07-31T07:00:45;66.25;;;60.65;;
45274;SDS011;31019;43.780;25.948;2023-07-31T07:03:15;64.80;;;59.40;;
45274;SDS011;31019;43.780;25.948;2023-07-31T07:05:42;66.43;;;60.70;;
45274;SDS011;31019;43.780;25.948;2023-07-31T07:08:09;61.35;;;56.13;;
45274;SDS011;31019;43.780;25.948;2023-07-31T07:10:36;66.60;;;60.63;;
45274;SDS011;31019;43.780;25.948;2023-07-31T07:13:05;72.88;;;66.78;;
45274;SDS011;31019;43.780;25.948;2023-07-31T07:15:32;75.30;;;68.97;;
45274;SDS011;31019;43.780;25.948;2023-07-31T07:17:59;70.88;;;64.65;;
45274;SDS011;31019;43.780;25.948;2023-07-31T07:20:28;67.65;;;62.25;;
45274;SDS011;31019;43.780;25.948;2023-07-31T07:22:55;53.38;;;49.08;;
45274;SDS011;31019;43.780;25.948;2023-07-31T07:25:30;67.85;;;62.15;;
45274;SDS011;31019;43.780;25.948;2023-07-31T07:27:58;67.15;;;61.55;;
45274;SDS011;31019;43.780;25.948;2023-07-31T07:30:25;76.75;;;70.43;;
45274;SDS011;31019;43.780;25.948;2023-07-31T07:32:52;72.57;;;66.28;;
45274;SDS011;31019;43.780;25.948;2023-07-31T07:35:19;71.40;;;65.53;;
45274;SDS011;31019;43.780;25.948;2023-07-31T07:37:49;78.65;;;72.07;;
45274;SDS011;31019;43.780;25.948;2023-07-31T07:40:16;72.53;;;66.63;;
45274;SDS011;31019;43.780;25.948;2023-07-31T07:42:43;72.80;;;67.00;;
45274;SDS011;31019;43.780;25.948;2023-07-31T07:45:13;73.15;;;67.25;;
45274;SDS011;31019;43.780;25.948;2023-07-31T07:47:48;80.82;;;74.70;;
45274;SDS011;31019;43.780;25.948;2023-07-31T07:50:15;61.10;;;56.50;;
45274;SDS011;31019;43.780;25.948;2023-07-31T07:52:42;58.65;;;54.15;;
45274;SDS011;31019;43.780;25.948;2023-07-31T07:55:16;65.15;;;59.95;;
45274;SDS011;31019;43.780;25.948;2023-07-31T07:57:43;65.72;;;60.80;;
45274;SDS011;31019;43.780;25.948;2023-07-31T08:00:17;47.65;;;43.65;;
45274;SDS011;31019;43.780;25.948;2023-07-31T08:02:44;63.83;;;58.72;;
45274;SDS011;31019;43.780;25.948;2023-07-31T08:05:18;56.03;;;51.42;;
45274;SDS011;31019;43.780;25.948;2023-07-31T08:10:41;54.97;;;50.47;;
45274;SDS011;31019;43.780;25.948;2023-07-31T08:13:09;65.25;;;60.03;;
45274;SDS011;31019;43.780;25.948;2023-07-31T08:15:40;65.18;;;60.33;;
45274;SDS011;31019;43.780;25.948;2023-07-31T08:18:07;61.60;;;56.97;;
45274;SDS011;31019;43.780;25.948;2023-07-31T08:20:37;63.03;;;57.35;;
45274;SDS011;31019;43.780;25.948;2023-07-31T08:23:07;62.53;;;57.92;;
45274;SDS011;31019;43.780;25.948;2023-07-31T08:25:48;55.97;;;51.80;;
45274;SDS011;31019;43.780;25.948;2023-07-31T08:28:20;48.17;;;44.38;;
45274;SDS011;31019;43.780;25.948;2023-07-31T08:30:50;48.92;;;45.13;;
45274;SDS011;31019;43.780;25.948;2023-07-31T08:33:17;56.83;;;52.65;;
45274;SDS011;31019;43.780;25.948;2023-07-31T08:35:59;55.67;;;51.25;;
45274;SDS011;31019;43.780;25.948;2023-07-31T08:38:26;44.42;;;40.90;;
45274;SDS011;31019;43.780;25.948;2023-07-31T08:40:56;43.38;;;39.88;;
45274;SDS011;31019;43.780;25.948;2023-07-31T08:43:25;46.70;;;42.90;;
45274;SDS011;31019;43.780;25.948;2023-07-31T08:45:53;41.85;;;38.15;;
45274;SDS011;31019;43.780;25.948;2023-07-31T08:48:26;44.50;;;40.90;;
45274;SDS011;31019;43.780;25.948;2023-07-31T08:50:55;42.35;;;38.95;;
45274;SDS011;31019;43.780;25.948;2023-07-31T08:53:30;46.58;;;43.08;;
45274;SDS011;31019;43.780;25.948;2023-07-31T08:55:58;38.35;;;35.25;;
45274;SDS011;31019;43.780;25.948;2023-07-31T08:58:26;40.53;;;37.22;;
45274;SDS011;31019;43.780;25.948;2023-07-31T09:01:06;39.72;;;36.50;;
45274;SDS011;31019;43.780;25.948;2023-07-31T09:03:34;40.58;;;37.28;;
45274;SDS011;31019;43.780;25.948;2023-07-31T09:06:03;38.20;;;35.10;;
45274;SDS011;31019;43.780;25.948;2023-07-31T09:08:33;44.90;;;41.33;;
45274;SDS011;31019;43.780;25.948;2023-07-31T09:11:09;40.15;;;36.95;;
45274;SDS011;31019;43.780;25.948;2023-07-31T09:13:36;38.83;;;35.70;;
45274;SDS011;31019;43.780;25.948;2023-07-31T09:16:08;43.35;;;39.95;;
45274;SDS011;31019;43.780;25.948;2023-07-31T09:21:28;47.13;;;43.45;;
45274;SDS011;31019;43.780;25.948;2023-07-31T09:23:59;50.22;;;46.33;;
45274;SDS011;31019;43.780;25.948;2023-07-31T09:29:28;48.53;;;44.72;;
45274;SDS011;31019;43.780;25.948;2023-07-31T09:32:15;50.72;;;46.83;;
45274;SDS011;31019;43.780;25.948;2023-07-31T09:34:54;43.35;;;39.83;;
45274;SDS011;31019;43.780;25.948;2023-07-31T09:37:23;53.78;;;49.38;;
45274;SDS011;31019;43.780;25.948;2023-07-31T09:39:49;47.17;;;43.17;;
45274;SDS011;31019;43.780;25.948;2023-07-31T09:48:40;40.20;;;37.10;;
45274;SDS011;31019;43.780;25.948;2023-07-31T09:57:33;29.58;;;27.20;;
45274;SDS011;31019;43.780;25.948;2023-07-31T10:00:14;30.98;;;28.38;;
45274;SDS011;31019;43.780;25.948;2023-07-31T10:02:48;31.67;;;29.08;;
45274;SDS011;31019;43.780;25.948;2023-07-31T10:05:34;31.67;;;29.08;;
45274;SDS011;31019;43.780;25.948;2023-07-31T10:08:14;27.58;;;25.48;;
45274;SDS011;31019;43.780;25.948;2023-07-31T10:10:51;28.88;;;26.63;;
45274;SDS011;31019;43.780;25.948;2023-07-31T10:13:18;31.30;;;28.70;;
45274;SDS011;31019;43.780;25.948;2023-07-31T10:15:47;32.05;;;29.63;;
45274;SDS011;31019;43.780;25.948;2023-07-31T10:18:16;27.13;;;25.13;;
45274;SDS011;31019;43.780;25.948;2023-07-31T10:23:54;27.63;;;25.23;;
45274;SDS011;31019;43.780;25.948;2023-07-31T10:31:37;26.58;;;24.48;;
45274;SDS011;31019;43.780;25.948;2023-07-31T10:34:11;27.63;;;25.42;;
45274;SDS011;31019;43.780;25.948;2023-07-31T10:36:39;31.60;;;29.23;;
45274;SDS011;31019;43.780;25.948;2023-07-31T10:39:06;30.50;;;28.30;;
45274;SDS011;31019;43.780;25.948;2023-07-31T10:42:08;28.50;;;26.30;;
45274;SDS011;31019;43.780;25.948;2023-07-31T10:44:43;33.15;;;30.75;;
45274;SDS011;31019;43.780;25.948;2023-07-31T10:47:14;32.65;;;30.33;;
45274;SDS011;31019;43.780;25.948;2023-07-31T10:49:46;32.97;;;30.30;;
45274;SDS011;31019;43.780;25.948;2023-07-31T10:52:13;33.50;;;31.02;;
45274;SDS011;31019;43.780;25.948;2023-07-31T10:55:00;32.35;;;29.98;;
45274;SDS011;31019;43.780;25.948;2023-07-31T10:57:48;31.80;;;29.38;;
45274;SDS011;31019;43.780;25.948;2023-07-31T11:00:18;32.20;;;29.85;;
45274;SDS011;31019;43.780;25.948;2023-07-31T11:05:51;31.92;;;29.50;;
45274;SDS011;31019;43.780;25.948;2023-07-31T11:08:21;31.35;;;28.83;;
45274;SDS011;31019;43.780;25.948;2023-07-31T11:10:51;32.42;;;29.65;;
45274;SDS011;31019;43.780;25.948;2023-07-31T11:13:31;32.88;;;30.38;;
45274;SDS011;31019;43.780;25.948;2023-07-31T11:16:01;30.33;;;28.05;;
45274;SDS011;31019;43.780;25.948;2023-07-31T11:18:28;29.85;;;27.48;;
45274;SDS011;31019;43.780;25.948;2023-07-31T11:20:56;30.70;;;28.40;;
45274;SDS011;31019;43.780;25.948;2023-07-31T11:23:45;29.70;;;27.30;;
45274;SDS011;31019;43.780;25.948;2023-07-31T11:29:03;32.03;;;29.40;;
45274;SDS011;31019;43.780;25.948;2023-07-31T11:31:41;32.25;;;29.83;;
45274;SDS011;31019;43.780;25.948;2023-07-31T11:34:08;32.60;;;30.00;;
45274;SDS011;31019;43.780;25.948;2023-07-31T11:36:47;33.20;;;30.50;;
45274;SDS011;31019;43.780;25.948;2023-07-31T11:39:19;34.22;;;30.95;;
45274;SDS011;31019;43.780;25.948;2023-07-31T11:41:47;33.72;;;30.75;;
45274;SDS011;31019;43.780;25.948;2023-07-31T11:44:14;33.00;;;30.17;;
45274;SDS011;31019;43.780;25.948;2023-07-31T11:46:40;34.38;;;31.33;;
45274;SDS011;31019;43.780;25.948;2023-07-31T11:49:09;33.80;;;31.00;;
45274;SDS011;31019;43.780;25.948;2023-07-31T11:51:49;33.25;;;30.55;;
45274;SDS011;31019;43.780;25.948;2023-07-31T11:54:23;33.63;;;31.02;;
45274;SDS011;31019;43.780;25.948;2023-07-31T11:56:51;30.25;;;27.75;;
45274;SDS011;31019;43.780;25.948;2023-07-31T11:59:18;32.22;;;29.63;;
45274;SDS011;31019;43.780;25.948;2023-07-31T12:01:45;32.33;;;29.52;;
45274;SDS011;31019;43.780;25.948;2023-07-31T12:04:12;34.80;;;31.77;;
45274;SDS011;31019;43.780;25.948;2023-07-31T12:06:39;35.83;;;32.55;;
45274;SDS011;31019;43.780;25.948;2023-07-31T12:09:07;33.85;;;31.05;;
45274;SDS011;31019;43.780;25.948;2023-07-31T12:11:42;33.38;;;30.35;;
45274;SDS011;31019;43.780;25.948;2023-07-31T12:17:01;40.53;;;37.05;;
45274;SDS011;31019;43.780;25.948;2023-07-31T12:19:39;42.93;;;39.37;;
45274;SDS011;31019;43.780;25.948;2023-07-31T12:22:14;44.08;;;40.40;;
45274;SDS011;31019;43.780;25.948;2023-07-31T12:27:20;38.63;;;34.97;;
45274;SDS011;31019;43.780;25.948;2023-07-31T12:29:56;38.35;;;34.25;;
45274;SDS011;31019;43.780;25.948;2023-07-31T12:32:24;35.30;;;32.17;;
45274;SDS011;31019;43.780;25.948;2023-07-31T12:35:00;37.53;;;34.08;;
45274;SDS011;31019;43.780;25.948;2023-07-31T12:37:28;39.97;;;36.83;;
45274;SDS011;31019;43.780;25.948;2023-07-31T12:40:17;45.00;;;41.65;;
45274;SDS011;31019;43.780;25.948;2023-07-31T12:42:44;38.80;;;35.90;;
45274;SDS011;31019;43.780;25.948;2023-07-31T12:48:02;38.72;;;35.70;;
45274;SDS011;31019;43.780;25.948;2023-07-31T12:50:35;43.10;;;39.95;;
45274;SDS011;31019;43.780;25.948;2023-07-31T12:53:02;39.45;;;36.35;;
45274;SDS011;31019;43.780;25.948;2023-07-31T12:55:42;39.85;;;36.63;;
45274;SDS011;31019;43.780;25.948;2023-07-31T13:01:10;42.25;;;39.05;;
45274;SDS011;31019;43.780;25.948;2023-07-31T13:03:55;38.40;;;35.33;;
45274;SDS011;31019;43.780;25.948;2023-07-31T13:08:56;34.75;;;32.05;;
45274;SDS011;31019;43.780;25.948;2023-07-31T13:14:46;36.78;;;33.72;;
45274;SDS011;31019;43.780;25.948;2023-07-31T13:17:15;33.13;;;30.42;;
45274;SDS011;31019;43.780;25.948;2023-07-31T13:19:42;34.95;;;31.95;;
45274;SDS011;31019;43.780;25.948;2023-07-31T13:22:24;32.60;;;29.83;;
45274;SDS011;31019;43.780;25.948;2023-07-31T13:28:12;33.22;;;30.52;;
45274;SDS011;31019;43.780;25.948;2023-07-31T13:30:56;32.72;;;30.00;;
45274;SDS011;31019;43.780;25.948;2023-07-31T13:33:23;31.77;;;29.08;;
45274;SDS011;31019;43.780;25.948;2023-07-31T13:35:57;30.15;;;27.55;;
45274;SDS011;31019;43.780;25.948;2023-07-31T13:38:38;32.35;;;29.85;;
45274;SDS011;31019;43.780;25.948;2023-07-31T13:41:05;31.45;;;29.17;;
45274;SDS011;31019;43.780;25.948;2023-07-31T13:43:45;27.27;;;25.02;;
45274;SDS011;31019;43.780;25.948;2023-07-31T13:46:20;26.80;;;24.45;;
45274;SDS011;31019;43.780;25.948;2023-07-31T13:48:47;27.35;;;25.10;;
45274;SDS011;31019;43.780;25.948;2023-07-31T13:51:14;33.10;;;30.50;;
45274;SDS011;31019;43.780;25.948;2023-07-31T13:53:43;32.30;;;29.77;;
45274;SDS011;31019;43.780;25.948;2023-07-31T13:56:10;31.83;;;29.27;;
45274;SDS011;31019;43.780;25.948;2023-07-31T13:58:39;33.15;;;30.45;;
45274;SDS011;31019;43.780;25.948;2023-07-31T14:01:14;38.13;;;35.03;;
45274;SDS011;31019;43.780;25.948;2023-07-31T14:03:51;37.13;;;34.30;;
45274;SDS011;31019;43.780;25.948;2023-07-31T14:12:11;37.15;;;34.38;;
45274;SDS011;31019;43.780;25.948;2023-07-31T14:14:38;36.45;;;33.67;;
45274;SDS011;31019;43.780;25.948;2023-07-31T14:17:08;38.90;;;36.00;;
45274;SDS011;31019;43.780;25.948;2023-07-31T14:27:58;37.42;;;34.75;;
45274;SDS011;31019;43.780;25.948;2023-07-31T14:30:26;28.88;;;26.33;;
45274;SDS011;31019;43.780;25.948;2023-07-31T14:32:59;29.73;;;27.13;;
45274;SDS011;31019;43.780;25.948;2023-07-31T14:35:29;31.58;;;28.90;;
45274;SDS011;31019;43.780;25.948;2023-07-31T14:40:45;28.08;;;25.67;;
45274;SDS011;31019;43.780;25.948;2023-07-31T14:43:13;28.45;;;25.73;;
45274;SDS011;31019;43.780;25.948;2023-07-31T14:48:34;341.65;;;141.30;;
45274;SDS011;31019;43.780;25.948;2023-07-31T14:51:02;371.65;;;156.40;;
45274;SDS011;31019;43.780;25.948;2023-07-31T14:53:32;129.55;;;83.75;;
45274;SDS011;31019;43.780;25.948;2023-07-31T14:55:59;102.75;;;64.65;;
45274;SDS011;31019;43.780;25.948;2023-07-31T14:58:26;45.08;;;39.97;;
45274;SDS011;31019;43.780;25.948;2023-07-31T15:00:53;42.13;;;37.63;;
45274;SDS011;31019;43.780;25.948;2023-07-31T15:03:21;42.35;;;38.45;;
45274;SDS011;31019;43.780;25.948;2023-07-31T15:05:50;43.20;;;39.38;;
45274;SDS011;31019;43.780;25.948;2023-07-31T15:08:18;43.67;;;40.03;;
45274;SDS011;31019;43.780;25.948;2023-07-31T15:10:57;41.15;;;37.10;;
45274;SDS011;31019;43.780;25.948;2023-07-31T15:16:00;49.17;;;44.30;;
45274;SDS011;31019;43.780;25.948;2023-07-31T15:18:27;52.80;;;47.95;;
45274;SDS011;31019;43.780;25.948;2023-07-31T15:21:10;47.53;;;43.35;;
45274;SDS011;31019;43.780;25.948;2023-07-31T15:23:38;53.95;;;48.70;;
45274;SDS011;31019;43.780;25.948;2023-07-31T15:26:10;50.53;;;45.85;;
45274;SDS011;31019;43.780;25.948;2023-07-31T15:31:08;47.95;;;43.75;;
45274;SDS011;31019;43.780;25.948;2023-07-31T15:33:35;45.88;;;41.70;;
45274;SDS011;31019;43.780;25.948;2023-07-31T15:36:02;43.60;;;39.08;;
45274;SDS011;31019;43.780;25.948;2023-07-31T15:38:38;46.65;;;41.75;;
45274;SDS011;31019;43.780;25.948;2023-07-31T15:41:13;55.90;;;50.08;;
45274;SDS011;31019;43.780;25.948;2023-07-31T15:43:53;50.65;;;45.28;;
45274;SDS011;31019;43.780;25.948;2023-07-31T15:46:21;45.97;;;41.20;;
45274;SDS011;31019;43.780;25.948;2023-07-31T15:48:49;51.35;;;46.05;;
45274;SDS011;31019;43.780;25.948;2023-07-31T15:51:24;51.42;;;46.17;;
45274;SDS011;31019;43.780;25.948;2023-07-31T15:53:53;49.75;;;44.78;;
45274;SDS011;31019;43.780;25.948;2023-07-31T15:56:20;44.75;;;40.47;;
45274;SDS011;31019;43.780;25.948;2023-07-31T15:59:01;54.50;;;48.80;;
45274;SDS011;31019;43.780;25.948;2023-07-31T16:01:28;48.80;;;43.85;;
45274;SDS011;31019;43.780;25.948;2023-07-31T16:03:57;47.80;;;43.30;;
45274;SDS011;31019;43.780;25.948;2023-07-31T16:06:24;52.40;;;47.50;;
45274;SDS011;31019;43.780;25.948;2023-07-31T16:08:54;43.08;;;39.03;;
45274;SDS011;31019;43.780;25.948;2023-07-31T16:11:31;38.13;;;34.35;;
45274;SDS011;31019;43.780;25.948;2023-07-31T16:14:02;38.45;;;34.70;;
45274;SDS011;31019;43.780;25.948;2023-07-31T16:19:15;48.22;;;43.63;;
45274;SDS011;31019;43.780;25.948;2023-07-31T16:24:50;47.55;;;43.00;;